Latest Weather Observations for Ferny Creek

IDV60901

Issued at 6:51 pm EST Wednesday 19 September 2018 (issued every 10 minutes, with the page automatically refreshed every 10 minutes)

About weather observations | Map of Melbourne area stations | Latest observations for Melbourne area | Other Formats
Station Details ID: 086266 Name: FERNY CREEK Lat: -37.87 Lon: 145.35 Height: 512.9 m
Data from the previous 72 hours. | See also: Recent months at Ferny Creek
Date/Time
EST
Temp
°C
App
Temp
°C
Dew
Point
°C
Rel
Hum
%
Delta-T
°C
Wind Press
QNH
hPa
Press
MSL
hPa
Rain since
9am
mm
Dir  Spd
km/h
Gust
km/h
Spd
kts
Gust
kts
19/06:30pm 5.8 3.6 1.3 73 1.8 WSW 2 6 1 3 1015.5 1015.8 0.0
19/06:00pm 6.6 4.5 1.5 70 2.1 WSW 2 6 1 3 1015.4 1015.7 0.0
19/05:30pm 7.0 4.1 1.7 69 2.2 WSW 6 13 3 7 1015.0 1015.2 0.0
19/05:00pm 7.4 5.0 2.3 70 2.2 WSW 4 7 2 4 1014.6 1014.9 0.0
19/04:30pm 8.5 5.2 2.5 66 2.6 WSW 9 19 5 10 1014.4 1014.7 0.0
19/04:00pm 9.4 6.5 2.7 63 2.9 W 7 19 4 10 1014.0 1014.3 0.0
19/03:30pm 9.4 5.8 0.3 53 3.8 WSW 9 19 5 10 1013.6 1013.9 0.0
19/03:00pm 11.3 8.5 1.8 52 4.2 WSW 6 13 3 7 1013.5 1013.7 0.0
19/02:30pm 11.3 8.4 1.3 50 4.3 W 6 17 3 9 1013.4 1013.6 0.0
19/02:00pm 10.1 6.6 1.5 55 3.7 WSW 9 22 5 12 1013.3 1013.5 0.0
19/01:30pm 10.4 6.8 0.4 50 4.2 WSW 9 20 5 11 1013.2 1013.4 0.0
19/01:00pm 9.2 6.1 1.6 59 3.2 W 7 15 4 8 1013.2 1013.4 0.0
19/12:30pm 9.2 6.3 1.4 58 3.3 WSW 6 15 3 8 1013.1 1013.3 0.0
19/12:00pm 9.6 6.8 2.2 60 3.2 WSW 6 15 3 8 1012.9 1013.1 0.0
19/11:30am 8.1 5.1 1.9 65 2.6 WSW 7 17 4 9 1012.8 1013.0 0.0
19/11:00am 7.1 4.3 2.0 70 2.2 WSW 6 11 3 6 1012.7 1012.9 0.0
19/10:30am 7.7 5.1 3.2 73 2.0 WNW 6 13 3 7 1012.5 1012.8 0.0
19/10:00am 6.9 3.9 1.8 70 2.1 WNW 7 19 4 10 1012.2 1012.5 0.0
19/09:30am 6.3 3.6 2.8 78 1.5 WNW 6 13 3 7 1012.1 1012.4 0.0
19/09:00am 5.4 3.1 2.6 82 1.2 WSW 4 11 2 6 1011.8 1012.0 0.6
19/08:30am 5.0 2.4 3.0 87 0.8 WNW 6 9 3 5 1011.5 1011.7 0.6
19/08:00am 4.9 2.3 3.2 89 0.7 W 6 15 3 8 1011.2 1011.4 0.6
19/07:30am 4.2 2.0 3.2 93 0.4 WSW 4 15 2 8 1010.9 1011.1 0.6
19/07:00am 4.3 2.1 3.4 94 0.4 W 4 7 2 4 1010.5 1010.8 0.6
19/06:30am 4.0 1.8 3.3 95 0.3 WSW 4 11 2 6 1010.0 1010.2 0.4
19/06:00am 4.3 2.1 3.6 95 0.3 W 4 9 2 5 1009.7 1009.9 0.4
19/05:30am 4.5 2.7 3.6 94 0.4 W 2 6 1 3 1009.2 1009.4 0.4
19/05:00am 5.1 3.4 3.8 91 0.6 WSW 2 6 1 3 1009.0 1009.2 0.2
19/04:30am 5.3 3.2 4.0 91 0.6 WNW 4 13 2 7 1008.9 1009.1 0.0
19/04:00am 5.7 3.8 4.8 94 0.4 WNW 4 11 2 6 1008.9 1009.1 0.0
19/03:30am 5.6 3.6 4.6 93 0.4 WSW 4 9 2 5 1008.7 1008.9 0.0
19/03:00am 5.6 4.4 4.6 93 0.4 CALM 0 4 0 2 1008.7 1008.9 0.0
19/02:30am 6.0 4.4 4.3 89 0.8 W 2 7 1 4 1008.7 1008.9 0.0
19/02:00am 6.7 4.3 4.5 86 1.0 WSW 6 15 3 8 1008.6 1008.7 0.0
19/01:30am 6.7 5.3 5.3 91 0.6 WSW 2 7 1 4 1008.9 1009.1 0.0
19/01:00am 6.8 5.2 6.2 96 0.3 WSW 4 6 2 3 1009.5 1009.7 0.0
19/12:30am 6.9 6.1 6.3 96 0.3 CALM 0 0 0 0 1009.8 1010.0 0.0
19/12:00am 7.0 5.4 6.3 95 0.3 NNW 4 11 2 6 1010.2 1010.4 0.0
 
Date/Time
EST
Temp
°C
App
Temp
°C
Dew
Point
°C
Rel
Hum
%
Delta-T
°C
Wind Press
QNH
hPa
Press
MSL
hPa
Rain since
9am
mm
Dir  Spd
km/h
Gust
km/h
Spd
kts
Gust
kts
18/11:30pm 6.8 5.5 5.9 94 0.4 NW 2 7 1 4 1010.2 1010.4 0.0
18/11:00pm 7.0 5.3 5.9 93 0.5 NW 4 9 2 5 1010.3 1010.6 0.0
18/10:30pm 7.1 5.8 5.9 92 0.6 WNW 2 6 1 3 1010.4 1010.7 0.0
18/10:00pm 7.4 6.4 5.7 89 0.8 CALM 0 4 0 2 1010.3 1010.6 0.0
18/09:30pm 7.6 5.3 5.7 88 0.9 SW 7 13 4 7 1010.2 1010.4 0.0
18/09:00pm 8.2 6.1 5.7 84 1.2 WSW 6 11 3 6 1010.2 1010.4 0.0
18/08:30pm 9.1 6.9 5.1 76 1.9 NW 6 17 3 9 1010.0 1010.2 0.0
18/08:00pm 9.3 7.1 5.1 75 2.0 NNW 6 13 3 7 1009.8 1010.0 0.0
18/07:30pm 9.4 7.1 5.0 74 2.0 NNW 6 17 3 9 1009.6 1009.8 0.0
18/07:00pm 9.9 7.5 4.1 67 2.6 N 6 11 3 6 1008.9 1009.1 0.0
18/06:30pm 10.5 7.4 3.5 62 3.2 NNW 9 26 5 14 1008.8 1009.0 0.0
18/06:00pm 11.2 8.1 3.5 59 3.5 NNW 9 24 5 13 1008.8 1009.0 0.0
18/05:30pm 11.0 8.0 4.0 62 3.2 NNW 9 24 5 13 1008.9 1009.1 0.0
18/05:00pm 11.6 8.8 2.1 52 4.2 NE 6 11 3 6 1008.6 1008.7 0.0
18/04:30pm 13.8 8.9 -3.5 30 6.9 NW 13 39 7 21 1008.0 1008.2 0.0
18/04:00pm 14.3 10.1 -3.5 29 7.2 NW 9 17 5 9 1007.7 1007.9 0.0
18/03:30pm 14.7 9.5 -3.1 29 7.2 NW 15 32 8 17 1007.6 1007.8 0.0
18/03:00pm 14.8 9.2 -3.0 29 7.3 NW 17 39 9 21 1007.5 1007.7 0.0
18/02:30pm 14.8 11.0 -3.5 28 7.4 NNW 7 19 4 10 1007.6 1007.8 0.0
18/02:00pm 15.1 10.7 -2.8 29 7.4 N 11 28 6 15 1007.9 1008.1 0.0
18/01:30pm 14.4 9.9 -2.9 30 7.0 N 11 30 6 16 1008.3 1008.5 0.0
18/01:00pm 13.9 9.4 -3.4 30 6.9 N 11 20 6 11 1008.4 1008.6 0.0
18/12:30pm 13.8 9.8 -2.6 32 6.7 N 9 24 5 13 1008.9 1009.1 0.0
18/12:00pm 14.2 8.9 -3.6 29 7.1 N 15 30 8 16 1009.1 1009.3 0.0
18/11:30am 13.9 9.9 -2.1 33 6.6 N 9 20 5 11 1009.6 1009.8 0.0
18/11:00am 14.1 9.0 -1.9 33 6.6 NNE 15 37 8 20 1009.7 1009.9 0.0
18/10:30am 13.0 7.5 -2.1 35 6.2 NNE 17 33 9 18 1009.7 1009.9 0.0
18/10:00am 12.5 7.2 -3.3 33 6.2 N 15 32 8 17 1010.3 1010.6 0.0
18/09:30am 12.6 7.8 -2.4 35 6.0 NNE 13 30 7 16 1010.8 1011.0 0.0
18/09:00am 12.1 6.8 -3.7 33 6.2 N 15 32 8 17 1011.1 1011.3 0.0
18/08:30am 11.9 6.7 -2.7 36 5.8 NNE 15 35 8 19 1011.4 1011.6 0.0
18/08:00am 11.1 5.4 -3.4 36 5.6 N 17 43 9 23 1011.6 1011.8 0.0
18/07:30am 10.6 3.9 -3.8 36 5.5 NNE 22 44 12 24 1011.3 1011.5 0.0
18/07:00am 9.8 3.2 -3.5 39 5.1 NNE 22 44 12 24 1011.1 1011.3 0.0
18/06:30am 9.7 3.6 -3.6 39 5.1 NNE 19 43 10 23 1011.5 1011.7 0.0
18/06:00am 9.6 4.7 -3.3 40 4.9 N 13 30 7 16 1011.9 1012.1 0.0
18/05:30am 9.9 4.6 -3.4 39 5.1 NNE 15 30 8 16 1012.0 1012.3 0.0
18/05:00am 10.0 3.8 -3.3 39 5.1 NNE 20 37 11 20 1011.9 1012.1 0.0
18/04:30am 9.7 4.1 -2.9 41 4.9 NNE 17 32 9 17 1012.0 1012.3 0.0
18/04:00am 9.7 4.9 -2.9 41 4.9 N 13 24 7 13 1012.5 1012.8 0.0
18/03:30am 9.9 4.7 -2.7 41 4.9 N 15 41 8 22 1012.7 1012.9 0.0
18/03:00am 9.7 5.3 -2.3 43 4.7 N 11 32 6 17 1013.0 1013.2 0.0
18/02:30am 9.8 5.0 -2.5 42 4.8 N 13 33 7 18 1013.2 1013.4 0.0
18/02:00am 10.2 5.8 -2.4 41 5.0 N 11 24 6 13 1013.3 1013.5 0.0
18/01:30am 9.9 4.7 -2.4 42 4.8 N 15 33 8 18 1013.5 1013.7 0.0
18/01:00am 10.4 4.9 -2.3 41 5.0 N 17 39 9 21 1013.5 1013.7 0.0
18/12:30am 10.4 5.3 -2.3 41 5.0 N 15 33 8 18 1013.3 1013.5 0.0
18/12:00am 10.4 5.3 -2.3 41 5.0 N 15 26 8 14 1013.3 1013.5 0.0
 
Date/Time
EST
Temp
°C
App
Temp
°C
Dew
Point
°C
Rel
Hum
%
Delta-T
°C
Wind Press
QNH
hPa
Press
MSL
hPa
Rain since
9am
mm
Dir  Spd
km/h
Gust
km/h
Spd
kts
Gust
kts
17/11:30pm 10.4 5.3 -1.9 42 4.9 NNE 15 32 8 17 1013.9 1014.2 0.0
17/11:00pm 10.8 5.7 -2.2 40 5.2 N 15 33 8 18 1014.1 1014.4 0.0
17/10:30pm 10.7 5.2 -2.0 41 5.1 NNE 17 28 9 15 1014.3 1014.6 0.0
17/10:00pm 10.4 5.0 -1.3 44 4.7 NNE 17 30 9 16 1014.9 1015.1 0.0
17/09:30pm 10.4 5.0 -1.3 44 4.7 NNE 17 32 9 17 1015.4 1015.7 0.0
17/09:00pm 10.0 5.1 -0.8 47 4.4 NNE 15 30 8 16 1015.7 1016.0 0.0
17/08:30pm 10.0 5.4 -0.8 47 4.4 NNE 13 22 7 12 1015.9 1016.2 0.0
17/08:00pm 10.2 5.3 -0.6 47 4.4 NNE 15 24 8 13 1016.1 1016.4 0.0
17/07:30pm 9.8 5.3 -0.4 49 4.2 NNE 13 28 7 15 1016.5 1016.8 0.0
17/07:00pm 10.1 5.6 -0.1 49 4.2 NNE 13 24 7 13 1016.7 1017.0 0.0
17/06:30pm 9.9 5.9 0.3 51 4.0 NNE 11 22 6 12 1016.7 1017.0 0.0
17/06:00pm 10.3 6.3 0.6 51 4.1 NNE 11 24 6 13 1017.0 1017.3 0.0
17/05:30pm 10.7 7.5 1.0 51 4.1 N 7 19 4 10 1016.9 1017.1 0.0
17/05:00pm 10.9 7.0 1.2 51 4.2 N 11 19 6 10 1016.5 1016.8 0.0
17/04:30pm 11.4 7.4 0.5 47 4.6 N 11 20 6 11 1016.7 1017.0 0.0
17/04:00pm 11.7 8.6 1.1 48 4.6 N 7 17 4 9 1016.7 1017.0 0.0
17/03:30pm 12.4 8.9 1.1 46 4.9 N 9 22 5 12 1017.0 1017.3 0.0
17/03:00pm 12.9 9.5 1.9 47 4.9 N 9 20 5 11 1017.2 1017.5 0.0
17/02:30pm 11.8 8.3 1.2 48 4.6 NNW 9 26 5 14 1017.6 1017.9 0.0
17/02:00pm 11.7 8.6 1.6 50 4.4 N 7 15 4 8 1017.9 1018.2 0.0
17/01:30pm 11.4 7.7 2.2 53 4.1 NNE 11 24 6 13 1018.2 1018.5 0.0
17/01:00pm 11.2 7.5 2.2 54 4.0 N 11 24 6 13 1018.5 1018.8 0.0
17/12:30pm 11.0 7.5 1.5 52 4.1 N 9 28 5 15 1019.1 1019.4 0.0
17/12:00pm 11.0 7.3 2.6 56 3.7 N 11 20 6 11 1019.4 1019.7 0.0
17/11:30am 10.3 6.9 1.7 55 3.7 NNW 9 20 5 11 1019.8 1020.1 0.0
17/11:00am 10.6 7.2 1.7 54 3.8 N 9 19 5 10 1020.1 1020.4 0.0
17/10:30am 11.0 7.7 2.6 56 3.7 NNW 9 22 5 12 1020.4 1020.8 0.0
17/10:00am 10.1 7.1 2.2 58 3.4 NNW 7 17 4 9 1020.7 1021.1 0.0
17/09:30am 9.2 6.1 1.1 57 3.4 NNW 7 19 4 10 1021.0 1021.3 0.0
17/09:00am 9.0 5.9 1.2 58 3.3 NW 7 15 4 8 1021.1 1021.4 0.0
17/08:30am 8.6 5.7 1.3 60 3.1 NW 6 17 3 9 1021.2 1021.5 0.0
17/08:00am 7.3 4.1 0.7 63 2.7 NNW 7 15 4 8 1021.2 1021.5 0.0
17/07:30am 6.5 3.4 0.4 65 2.5 NW 6 15 3 8 1021.2 1021.5 0.0
17/07:00am 5.6 2.3 0.0 67 2.2 NW 7 19 4 10 1021.1 1021.4 0.0
17/06:30am 5.1 1.8 0.1 70 2.0 NW 7 17 4 9 1021.0 1021.3 0.0
17/06:00am 4.9 1.8 -0.1 70 2.0 NW 6 13 3 7 1020.8 1021.2 0.0
17/05:30am 5.0 1.7 0.0 70 2.0 NW 7 15 4 8 1020.6 1021.0 0.0
17/05:00am 4.6 1.5 0.0 72 1.8 NW 6 11 3 6 1020.6 1021.0 0.0
17/04:30am 4.1 1.4 0.3 76 1.5 W 4 6 2 3 1020.6 1021.0 0.0
17/04:00am 4.0 1.7 0.2 76 1.5 WNW 2 6 1 3 1020.5 1020.9 0.0
17/03:30am 4.2 1.9 0.2 75 1.6 W 2 9 1 5 1020.6 1021.0 0.0
17/03:00am 4.8 1.7 0.2 72 1.8 WNW 6 11 3 6 1020.6 1021.0 0.0
17/02:30am 5.0 1.9 0.2 71 1.9 NW 6 15 3 8 1020.7 1021.1 0.0
17/02:00am 4.9 2.2 0.5 73 1.7 NW 4 9 2 5 1021.0 1021.3 0.0
17/01:30am 5.0 2.3 0.6 73 1.8 NW 4 9 2 5 1021.2 1021.5 0.0
17/01:00am 5.3 3.1 1.1 74 1.7 NW 2 6 1 3 1021.4 1021.7 0.0
17/12:30am 5.5 3.0 1.8 77 1.5 NW 4 7 2 4 1021.6 1021.9 0.0
17/12:00am 5.7 3.2 1.6 75 1.7 NW 4 6 2 3 1021.6 1021.9 0.0
 
Date/Time
EST
Temp
°C
App
Temp
°C
Dew
Point
°C
Rel
Hum
%
Delta-T
°C
Wind Press
QNH
hPa
Press
MSL
hPa
Rain since
9am
mm
Dir  Spd
km/h
Gust
km/h
Spd
kts
Gust
kts
16/11:30pm 6.5 4.1 2.2 74 1.8 NNW 4 9 2 5 1021.7 1022.0 0.0
16/11:00pm 6.3 4.3 2.4 76 1.6 NW 2 6 1 3 1022.0 1022.4 0.0
16/10:30pm 5.8 3.9 2.6 80 1.4 NW 2 6 1 3 1022.1 1022.5 0.0
16/10:00pm 5.4 3.8 2.4 81 1.3 CALM 0 4 0 2 1022.2 1022.6 0.0
16/09:30pm 5.0 3.3 2.0 81 1.2 CALM 0 0 0 0 1022.4 1022.8 0.0
16/09:00pm 5.0 3.3 2.0 81 1.2 CALM 0 0 0 0 1022.4 1022.8 0.0
16/08:30pm 5.0 3.3 2.0 81 1.2 CALM 0 0 0 0 1022.2 1022.6 0.0
16/08:00pm 5.2 3.5 2.0 80 1.3 CALM 0 0 0 0 1022.1 1022.5 0.0
16/07:30pm 5.9 4.3 2.5 79 1.4 CALM 0 0 0 0 1021.8 1022.1 0.0
16/07:00pm 6.0 4.4 2.6 79 1.4 CALM 0 4 0 2 1021.6 1021.9 0.0

Latest Capital City Observations: Canberra | Sydney | Melbourne | Brisbane | Adelaide | Perth | Hobart | Darwin

Other Formats:

Comma delimited format used in spreadsheet applications
http://www.bom.gov.au/fwo/IDV60901/IDV60901.94872.axf

JavaScript Object Notation format (JSON) in row-major order
http://www.bom.gov.au/fwo/IDV60901/IDV60901.94872.json